sensor_id;sensor_type;location;lat;lon;timestamp;temperature;humidity
7030;DHT22;3556;53.500;10.176;2023-09-12T00:00:45;19.40;99.90
7030;DHT22;3556;53.500;10.176;2023-09-12T00:03:11;19.40;99.90
7030;DHT22;3556;53.500;10.176;2023-09-12T00:05:37;19.40;99.90
7030;DHT22;3556;53.500;10.176;2023-09-12T00:08:03;19.40;99.90
7030;DHT22;3556;53.500;10.176;2023-09-12T00:10:29;19.30;99.90
7030;DHT22;3556;53.500;10.176;2023-09-12T00:12:55;19.30;99.90
7030;DHT22;3556;53.500;10.176;2023-09-12T00:15:21;19.30;99.90
7030;DHT22;3556;53.500;10.176;2023-09-12T00:17:46;19.30;99.90
7030;DHT22;3556;53.500;10.176;2023-09-12T00:20:14;19.20;99.90
7030;DHT22;3556;53.500;10.176;2023-09-12T00:22:39;19.20;99.90
7030;DHT22;3556;53.500;10.176;2023-09-12T00:25:05;19.20;99.90
7030;DHT22;3556;53.500;10.176;2023-09-12T00:27:31;19.20;99.90
7030;DHT22;3556;53.500;10.176;2023-09-12T00:29:57;19.10;99.90
7030;DHT22;3556;53.500;10.176;2023-09-12T00:32:22;19.10;99.90
7030;DHT22;3556;53.500;10.176;2023-09-12T00:34:48;19.10;99.90
7030;DHT22;3556;53.500;10.176;2023-09-12T00:37:13;19.10;99.90
7030;DHT22;3556;53.500;10.176;2023-09-12T00:39:39;19.20;99.90
7030;DHT22;3556;53.500;10.176;2023-09-12T00:42:05;19.10;99.90
7030;DHT22;3556;53.500;10.176;2023-09-12T00:44:33;19.10;99.90
7030;DHT22;3556;53.500;10.176;2023-09-12T00:47:00;19.20;99.90
7030;DHT22;3556;53.500;10.176;2023-09-12T00:49:27;19.20;99.90
7030;DHT22;3556;53.500;10.176;2023-09-12T00:51:54;19.10;99.90
7030;DHT22;3556;53.500;10.176;2023-09-12T00:54:21;19.20;99.90
7030;DHT22;3556;53.500;10.176;2023-09-12T00:56:47;19.20;99.90
7030;DHT22;3556;53.500;10.176;2023-09-12T00:59:15;19.30;99.90
7030;DHT22;3556;53.500;10.176;2023-09-12T01:01:43;19.30;99.90
7030;DHT22;3556;53.500;10.176;2023-09-12T01:04:09;19.30;99.90
7030;DHT22;3556;53.500;10.176;2023-09-12T01:06:36;19.30;99.90
7030;DHT22;3556;53.500;10.176;2023-09-12T01:09:02;19.40;99.90
7030;DHT22;3556;53.500;10.176;2023-09-12T01:11:28;19.40;99.90
7030;DHT22;3556;53.500;10.176;2023-09-12T01:13:54;19.40;99.90
7030;DHT22;3556;53.500;10.176;2023-09-12T01:16:19;19.40;99.90
7030;DHT22;3556;53.500;10.176;2023-09-12T01:18:46;19.40;99.90
7030;DHT22;3556;53.500;10.176;2023-09-12T01:27:21;19.40;99.90
7030;DHT22;3556;53.500;10.176;2023-09-12T01:29:51;19.40;99.90
7030;DHT22;3556;53.500;10.176;2023-09-12T01:32:19;19.40;99.90
7030;DHT22;3556;53.500;10.176;2023-09-12T01:34:45;19.40;99.90
7030;DHT22;3556;53.500;10.176;2023-09-12T01:37:11;19.30;99.90
7030;DHT22;3556;53.500;10.176;2023-09-12T01:39:36;19.40;99.90
7030;DHT22;3556;53.500;10.176;2023-09-12T01:42:02;19.40;99.90
7030;DHT22;3556;53.500;10.176;2023-09-12T01:44:28;19.40;99.90
7030;DHT22;3556;53.500;10.176;2023-09-12T01:47:00;19.40;99.90
7030;DHT22;3556;53.500;10.176;2023-09-12T01:49:29;19.30;99.90
7030;DHT22;3556;53.500;10.176;2023-09-12T01:51:56;19.40;99.90
7030;DHT22;3556;53.500;10.176;2023-09-12T01:54:22;19.30;99.90
7030;DHT22;3556;53.500;10.176;2023-09-12T01:56:48;19.30;99.90
7030;DHT22;3556;53.500;10.176;2023-09-12T01:59:14;19.30;99.90
7030;DHT22;3556;53.500;10.176;2023-09-12T02:01:40;19.30;99.90
7030;DHT22;3556;53.500;10.176;2023-09-12T02:04:07;19.40;99.90
7030;DHT22;3556;53.500;10.176;2023-09-12T02:06:34;19.30;99.90
7030;DHT22;3556;53.500;10.176;2023-09-12T02:09:00;19.40;99.90
7030;DHT22;3556;53.500;10.176;2023-09-12T02:11:26;19.30;99.90
7030;DHT22;3556;53.500;10.176;2023-09-12T02:13:52;19.30;99.90
7030;DHT22;3556;53.500;10.176;2023-09-12T02:16:18;19.30;99.90
7030;DHT22;3556;53.500;10.176;2023-09-12T02:18:43;19.30;99.90
7030;DHT22;3556;53.500;10.176;2023-09-12T02:21:09;19.40;99.90
7030;DHT22;3556;53.500;10.176;2023-09-12T02:23:35;19.30;99.90
7030;DHT22;3556;53.500;10.176;2023-09-12T02:26:00;19.30;99.90
7030;DHT22;3556;53.500;10.176;2023-09-12T02:28:26;19.30;99.90
7030;DHT22;3556;53.500;10.176;2023-09-12T02:30:51;19.40;99.90
7030;DHT22;3556;53.500;10.176;2023-09-12T02:33:17;19.30;99.90
7030;DHT22;3556;53.500;10.176;2023-09-12T02:35:43;19.30;99.90
7030;DHT22;3556;53.500;10.176;2023-09-12T02:38:08;19.20;99.90
7030;DHT22;3556;53.500;10.176;2023-09-12T02:40:34;19.20;99.90
7030;DHT22;3556;53.500;10.176;2023-09-12T02:43:00;19.20;99.90
7030;DHT22;3556;53.500;10.176;2023-09-12T02:45:25;19.20;99.90
7030;DHT22;3556;53.500;10.176;2023-09-12T02:47:51;19.20;99.90
7030;DHT22;3556;53.500;10.176;2023-09-12T02:50:16;19.20;99.90
7030;DHT22;3556;53.500;10.176;2023-09-12T02:52:42;19.20;99.90
7030;DHT22;3556;53.500;10.176;2023-09-12T02:55:08;19.20;99.90
7030;DHT22;3556;53.500;10.176;2023-09-12T02:57:33;19.10;99.90
7030;DHT22;3556;53.500;10.176;2023-09-12T02:59:59;19.10;99.90
7030;DHT22;3556;53.500;10.176;2023-09-12T03:02:25;19.10;99.90
7030;DHT22;3556;53.500;10.176;2023-09-12T03:04:50;19.10;99.90
7030;DHT22;3556;53.500;10.176;2023-09-12T03:07:16;19.10;99.90
7030;DHT22;3556;53.500;10.176;2023-09-12T03:09:41;19.10;99.90
7030;DHT22;3556;53.500;10.176;2023-09-12T03:12:07;19.10;99.90
7030;DHT22;3556;53.500;10.176;2023-09-12T03:14:33;19.10;99.90
7030;DHT22;3556;53.500;10.176;2023-09-12T03:16:58;19.10;99.90
7030;DHT22;3556;53.500;10.176;2023-09-12T03:19:24;19.10;99.90
7030;DHT22;3556;53.500;10.176;2023-09-12T03:21:49;19.10;99.90
7030;DHT22;3556;53.500;10.176;2023-09-12T03:24:15;19.10;99.90
7030;DHT22;3556;53.500;10.176;2023-09-12T03:26:43;19.10;99.90
7030;DHT22;3556;53.500;10.176;2023-09-12T03:29:09;19.10;99.90
7030;DHT22;3556;53.500;10.176;2023-09-12T03:31:35;19.10;99.90
7030;DHT22;3556;53.500;10.176;2023-09-12T03:34:01;19.10;99.90
7030;DHT22;3556;53.500;10.176;2023-09-12T03:36:26;19.10;99.90
7030;DHT22;3556;53.500;10.176;2023-09-12T03:38:52;19.10;99.90
7030;DHT22;3556;53.500;10.176;2023-09-12T03:41:18;19.10;99.90
7030;DHT22;3556;53.500;10.176;2023-09-12T03:43:43;19.10;99.90
7030;DHT22;3556;53.500;10.176;2023-09-12T03:46:09;19.10;99.90
7030;DHT22;3556;53.500;10.176;2023-09-12T03:48:35;19.10;99.90
7030;DHT22;3556;53.500;10.176;2023-09-12T03:51:02;19.10;99.90
7030;DHT22;3556;53.500;10.176;2023-09-12T03:53:29;19.10;99.90
7030;DHT22;3556;53.500;10.176;2023-09-12T03:55:55;19.10;99.90
7030;DHT22;3556;53.500;10.176;2023-09-12T03:58:21;19.10;99.90
7030;DHT22;3556;53.500;10.176;2023-09-12T04:00:47;19.10;99.90
7030;DHT22;3556;53.500;10.176;2023-09-12T04:03:12;19.10;99.90
7030;DHT22;3556;53.500;10.176;2023-09-12T04:05:38;19.10;99.90
7030;DHT22;3556;53.500;10.176;2023-09-12T04:08:04;19.10;99.90
7030;DHT22;3556;53.500;10.176;2023-09-12T04:10:29;19.10;99.90
7030;DHT22;3556;53.500;10.176;2023-09-12T04:12:55;19.10;99.90
7030;DHT22;3556;53.500;10.176;2023-09-12T04:15:20;19.10;99.90
7030;DHT22;3556;53.500;10.176;2023-09-12T04:17:46;19.10;99.90
7030;DHT22;3556;53.500;10.176;2023-09-12T04:20:12;19.10;99.90
7030;DHT22;3556;53.500;10.176;2023-09-12T04:22:42;19.10;99.90
7030;DHT22;3556;53.500;10.176;2023-09-12T04:25:07;19.10;99.90
7030;DHT22;3556;53.500;10.176;2023-09-12T04:27:33;19.10;99.90
7030;DHT22;3556;53.500;10.176;2023-09-12T04:29:59;19.10;99.90
7030;DHT22;3556;53.500;10.176;2023-09-12T04:32:25;19.10;99.90
7030;DHT22;3556;53.500;10.176;2023-09-12T04:34:50;19.10;99.90
7030;DHT22;3556;53.500;10.176;2023-09-12T04:37:16;19.10;99.90
7030;DHT22;3556;53.500;10.176;2023-09-12T04:39:42;19.10;99.90
7030;DHT22;3556;53.500;10.176;2023-09-12T04:42:08;19.10;99.90
7030;DHT22;3556;53.500;10.176;2023-09-12T04:44:40;19.10;99.90
7030;DHT22;3556;53.500;10.176;2023-09-12T04:47:06;19.10;99.90
7030;DHT22;3556;53.500;10.176;2023-09-12T04:49:31;19.00;99.90
7030;DHT22;3556;53.500;10.176;2023-09-12T04:51:57;19.10;99.90
7030;DHT22;3556;53.500;10.176;2023-09-12T04:54:23;19.00;99.90
7030;DHT22;3556;53.500;10.176;2023-09-12T04:56:48;19.00;99.90
7030;DHT22;3556;53.500;10.176;2023-09-12T04:59:14;18.90;99.90
7030;DHT22;3556;53.500;10.176;2023-09-12T05:01:40;18.90;99.90
7030;DHT22;3556;53.500;10.176;2023-09-12T05:04:05;18.90;99.90
7030;DHT22;3556;53.500;10.176;2023-09-12T05:06:31;18.90;99.90
7030;DHT22;3556;53.500;10.176;2023-09-12T05:08:57;18.90;99.90
7030;DHT22;3556;53.500;10.176;2023-09-12T05:11:23;18.90;99.90
7030;DHT22;3556;53.500;10.176;2023-09-12T05:13:50;18.90;99.90
7030;DHT22;3556;53.500;10.176;2023-09-12T05:16:15;18.90;99.90
7030;DHT22;3556;53.500;10.176;2023-09-12T05:18:41;18.90;99.90
7030;DHT22;3556;53.500;10.176;2023-09-12T05:21:06;18.90;99.90
7030;DHT22;3556;53.500;10.176;2023-09-12T05:23:32;18.90;99.90
7030;DHT22;3556;53.500;10.176;2023-09-12T05:25:58;18.90;99.90
7030;DHT22;3556;53.500;10.176;2023-09-12T05:28:23;18.90;99.90
7030;DHT22;3556;53.500;10.176;2023-09-12T05:30:49;18.90;99.90
7030;DHT22;3556;53.500;10.176;2023-09-12T05:33:15;18.90;99.90
7030;DHT22;3556;53.500;10.176;2023-09-12T05:35:41;18.90;99.90
7030;DHT22;3556;53.500;10.176;2023-09-12T05:38:07;18.90;99.90
7030;DHT22;3556;53.500;10.176;2023-09-12T05:40:32;18.90;99.90
7030;DHT22;3556;53.500;10.176;2023-09-12T05:42:58;18.90;99.90
7030;DHT22;3556;53.500;10.176;2023-09-12T05:45:24;18.90;99.90
7030;DHT22;3556;53.500;10.176;2023-09-12T05:47:49;19.00;99.90
7030;DHT22;3556;53.500;10.176;2023-09-12T05:50:16;19.00;99.90
7030;DHT22;3556;53.500;10.176;2023-09-12T05:52:41;19.00;99.90
7030;DHT22;3556;53.500;10.176;2023-09-12T05:55:08;19.10;99.90
7030;DHT22;3556;53.500;10.176;2023-09-12T05:57:34;19.10;99.90
7030;DHT22;3556;53.500;10.176;2023-09-12T06:00:00;19.10;99.90
7030;DHT22;3556;53.500;10.176;2023-09-12T06:02:27;19.10;99.90
7030;DHT22;3556;53.500;10.176;2023-09-12T06:04:52;19.10;99.90
7030;DHT22;3556;53.500;10.176;2023-09-12T06:07:18;19.10;99.90
7030;DHT22;3556;53.500;10.176;2023-09-12T06:09:45;19.10;99.90
7030;DHT22;3556;53.500;10.176;2023-09-12T06:12:10;19.10;99.90
7030;DHT22;3556;53.500;10.176;2023-09-12T06:14:36;19.10;99.90
7030;DHT22;3556;53.500;10.176;2023-09-12T06:17:01;19.10;99.90
7030;DHT22;3556;53.500;10.176;2023-09-12T06:19:27;19.10;99.90
7030;DHT22;3556;53.500;10.176;2023-09-12T06:21:53;19.10;99.90
7030;DHT22;3556;53.500;10.176;2023-09-12T06:24:21;19.10;99.90
7030;DHT22;3556;53.500;10.176;2023-09-12T06:26:47;19.10;99.90
7030;DHT22;3556;53.500;10.176;2023-09-12T06:29:13;19.10;99.90
7030;DHT22;3556;53.500;10.176;2023-09-12T06:31:39;19.10;99.90
7030;DHT22;3556;53.500;10.176;2023-09-12T06:34:07;19.20;99.90
7030;DHT22;3556;53.500;10.176;2023-09-12T06:36:32;19.20;99.90
7030;DHT22;3556;53.500;10.176;2023-09-12T06:38:59;19.30;99.90
7030;DHT22;3556;53.500;10.176;2023-09-12T06:41:26;19.30;99.90
7030;DHT22;3556;53.500;10.176;2023-09-12T06:43:52;19.30;99.90
7030;DHT22;3556;53.500;10.176;2023-09-12T06:46:18;19.30;99.90
7030;DHT22;3556;53.500;10.176;2023-09-12T06:48:45;19.30;99.90
7030;DHT22;3556;53.500;10.176;2023-09-12T06:51:11;19.30;99.90
7030;DHT22;3556;53.500;10.176;2023-09-12T06:53:37;19.40;99.90
7030;DHT22;3556;53.500;10.176;2023-09-12T06:56:07;19.30;99.90
7030;DHT22;3556;53.500;10.176;2023-09-12T06:58:33;19.40;99.90
7030;DHT22;3556;53.500;10.176;2023-09-12T07:01:05;19.40;99.90
7030;DHT22;3556;53.500;10.176;2023-09-12T07:03:32;19.40;99.90
7030;DHT22;3556;53.500;10.176;2023-09-12T07:05:58;19.40;99.90
7030;DHT22;3556;53.500;10.176;2023-09-12T07:08:24;19.40;99.90
7030;DHT22;3556;53.500;10.176;2023-09-12T07:10:49;19.40;99.90
7030;DHT22;3556;53.500;10.176;2023-09-12T07:13:15;19.50;99.90
7030;DHT22;3556;53.500;10.176;2023-09-12T07:15:41;19.50;99.90
7030;DHT22;3556;53.500;10.176;2023-09-12T07:18:06;19.60;99.90
7030;DHT22;3556;53.500;10.176;2023-09-12T07:20:34;19.60;99.90
7030;DHT22;3556;53.500;10.176;2023-09-12T07:23:00;19.60;99.90
7030;DHT22;3556;53.500;10.176;2023-09-12T07:25:26;19.60;99.90
7030;DHT22;3556;53.500;10.176;2023-09-12T07:27:51;19.60;99.90
7030;DHT22;3556;53.500;10.176;2023-09-12T07:30:17;19.60;99.90
7030;DHT22;3556;53.500;10.176;2023-09-12T07:32:43;19.60;99.90
7030;DHT22;3556;53.500;10.176;2023-09-12T07:35:08;19.60;99.90
7030;DHT22;3556;53.500;10.176;2023-09-12T07:37:34;19.60;99.90
7030;DHT22;3556;53.500;10.176;2023-09-12T07:40:00;19.60;99.90
7030;DHT22;3556;53.500;10.176;2023-09-12T07:42:26;19.60;99.90
7030;DHT22;3556;53.500;10.176;2023-09-12T07:44:51;19.70;99.90
7030;DHT22;3556;53.500;10.176;2023-09-12T07:47:18;19.70;99.90
7030;DHT22;3556;53.500;10.176;2023-09-12T07:49:43;19.70;99.90
7030;DHT22;3556;53.500;10.176;2023-09-12T07:52:09;19.70;99.90
7030;DHT22;3556;53.500;10.176;2023-09-12T07:54:34;19.70;99.90
7030;DHT22;3556;53.500;10.176;2023-09-12T07:57:02;19.70;99.90
7030;DHT22;3556;53.500;10.176;2023-09-12T07:59:28;19.80;99.90
7030;DHT22;3556;53.500;10.176;2023-09-12T08:01:54;19.80;99.90
7030;DHT22;3556;53.500;10.176;2023-09-12T08:04:20;19.90;99.90
7030;DHT22;3556;53.500;10.176;2023-09-12T08:06:46;19.90;99.90
7030;DHT22;3556;53.500;10.176;2023-09-12T08:09:12;19.90;99.90
7030;DHT22;3556;53.500;10.176;2023-09-12T08:11:37;19.90;99.90
7030;DHT22;3556;53.500;10.176;2023-09-12T08:14:03;19.90;99.90
7030;DHT22;3556;53.500;10.176;2023-09-12T08:16:28;20.00;99.90
7030;DHT22;3556;53.500;10.176;2023-09-12T08:18:56;19.90;99.90
7030;DHT22;3556;53.500;10.176;2023-09-12T08:21:21;19.90;99.90
7030;DHT22;3556;53.500;10.176;2023-09-12T08:23:47;20.00;99.90
7030;DHT22;3556;53.500;10.176;2023-09-12T08:26:13;20.00;99.90
7030;DHT22;3556;53.500;10.176;2023-09-12T08:28:38;20.00;99.90
7030;DHT22;3556;53.500;10.176;2023-09-12T08:31:04;20.00;99.90
7030;DHT22;3556;53.500;10.176;2023-09-12T08:33:30;20.00;99.90
7030;DHT22;3556;53.500;10.176;2023-09-12T08:35:55;20.00;99.90
7030;DHT22;3556;53.500;10.176;2023-09-12T08:38:21;20.00;99.90
7030;DHT22;3556;53.500;10.176;2023-09-12T08:40:50;20.00;99.90
7030;DHT22;3556;53.500;10.176;2023-09-12T08:43:16;20.00;99.90
7030;DHT22;3556;53.500;10.176;2023-09-12T08:45:42;20.00;99.90
7030;DHT22;3556;53.500;10.176;2023-09-12T08:48:11;20.10;99.90
7030;DHT22;3556;53.500;10.176;2023-09-12T08:50:38;20.10;99.90
7030;DHT22;3556;53.500;10.176;2023-09-12T08:53:04;20.10;99.90
7030;DHT22;3556;53.500;10.176;2023-09-12T08:55:31;20.10;99.90
7030;DHT22;3556;53.500;10.176;2023-09-12T08:57:59;20.20;99.90
7030;DHT22;3556;53.500;10.176;2023-09-12T09:00:25;20.30;99.90
7030;DHT22;3556;53.500;10.176;2023-09-12T09:02:52;20.30;99.90
7030;DHT22;3556;53.500;10.176;2023-09-12T09:05:20;20.40;99.90
7030;DHT22;3556;53.500;10.176;2023-09-12T09:07:48;20.50;99.90
7030;DHT22;3556;53.500;10.176;2023-09-12T09:10:15;20.50;99.90
7030;DHT22;3556;53.500;10.176;2023-09-12T09:12:43;20.50;99.90
7030;DHT22;3556;53.500;10.176;2023-09-12T09:15:23;20.50;99.90
7030;DHT22;3556;53.500;10.176;2023-09-12T09:17:49;20.50;99.90
7030;DHT22;3556;53.500;10.176;2023-09-12T09:20:28;20.50;99.90
7030;DHT22;3556;53.500;10.176;2023-09-12T09:23:01;20.60;99.90
7030;DHT22;3556;53.500;10.176;2023-09-12T09:25:33;20.50;99.90
7030;DHT22;3556;53.500;10.176;2023-09-12T09:28:03;20.50;99.90
7030;DHT22;3556;53.500;10.176;2023-09-12T09:30:49;20.60;99.90
7030;DHT22;3556;53.500;10.176;2023-09-12T09:33:16;20.60;99.90
7030;DHT22;3556;53.500;10.176;2023-09-12T09:35:42;20.70;99.90
7030;DHT22;3556;53.500;10.176;2023-09-12T09:38:09;20.80;99.90
7030;DHT22;3556;53.500;10.176;2023-09-12T09:40:35;20.90;99.90
7030;DHT22;3556;53.500;10.176;2023-09-12T09:43:03;21.00;99.90
7030;DHT22;3556;53.500;10.176;2023-09-12T09:45:32;21.10;99.90
7030;DHT22;3556;53.500;10.176;2023-09-12T09:48:07;21.20;99.90
7030;DHT22;3556;53.500;10.176;2023-09-12T09:50:36;21.40;99.90
7030;DHT22;3556;53.500;10.176;2023-09-12T09:53:04;21.50;99.90
7030;DHT22;3556;53.500;10.176;2023-09-12T09:55:32;21.50;99.90
7030;DHT22;3556;53.500;10.176;2023-09-12T09:57:58;21.50;99.90
7030;DHT22;3556;53.500;10.176;2023-09-12T10:00:23;21.50;99.90
7030;DHT22;3556;53.500;10.176;2023-09-12T10:02:51;21.50;99.90
7030;DHT22;3556;53.500;10.176;2023-09-12T10:05:20;21.50;99.90
7030;DHT22;3556;53.500;10.176;2023-09-12T10:07:48;21.40;99.90
7030;DHT22;3556;53.500;10.176;2023-09-12T10:10:16;21.40;99.90
7030;DHT22;3556;53.500;10.176;2023-09-12T10:12:49;21.30;99.90
7030;DHT22;3556;53.500;10.176;2023-09-12T10:15:18;21.30;99.90
7030;DHT22;3556;53.500;10.176;2023-09-12T10:17:46;21.30;99.90
7030;DHT22;3556;53.500;10.176;2023-09-12T10:20:16;21.30;99.90
7030;DHT22;3556;53.500;10.176;2023-09-12T10:23:11;21.30;99.90
7030;DHT22;3556;53.500;10.176;2023-09-12T10:25:37;21.30;99.90
7030;DHT22;3556;53.500;10.176;2023-09-12T10:28:05;21.30;99.90
7030;DHT22;3556;53.500;10.176;2023-09-12T10:30:33;21.20;99.90
7030;DHT22;3556;53.500;10.176;2023-09-12T10:33:02;21.20;99.90
7030;DHT22;3556;53.500;10.176;2023-09-12T10:35:30;21.20;99.90
7030;DHT22;3556;53.500;10.176;2023-09-12T10:37:59;21.20;99.90
7030;DHT22;3556;53.500;10.176;2023-09-12T10:40:27;21.20;99.90
7030;DHT22;3556;53.500;10.176;2023-09-12T10:42:55;21.10;99.90
7030;DHT22;3556;53.500;10.176;2023-09-12T10:45:22;21.10;99.90
7030;DHT22;3556;53.500;10.176;2023-09-12T10:47:48;21.10;99.90
7030;DHT22;3556;53.500;10.176;2023-09-12T10:50:14;21.10;99.90
7030;DHT22;3556;53.500;10.176;2023-09-12T10:52:40;21.10;99.90
7030;DHT22;3556;53.500;10.176;2023-09-12T10:55:07;21.00;99.90
7030;DHT22;3556;53.500;10.176;2023-09-12T10:57:33;21.00;99.90
7030;DHT22;3556;53.500;10.176;2023-09-12T11:02:34;20.90;99.90
7030;DHT22;3556;53.500;10.176;2023-09-12T11:07:48;20.80;99.90
7030;DHT22;3556;53.500;10.176;2023-09-12T11:12:41;20.80;99.90
7030;DHT22;3556;53.500;10.176;2023-09-12T11:15:07;20.80;99.90
7030;DHT22;3556;53.500;10.176;2023-09-12T11:17:47;20.70;99.90
7030;DHT22;3556;53.500;10.176;2023-09-12T11:20:14;20.70;99.90
7030;DHT22;3556;53.500;10.176;2023-09-12T11:22:47;20.70;99.90
7030;DHT22;3556;53.500;10.176;2023-09-12T11:25:22;20.70;99.90
7030;DHT22;3556;53.500;10.176;2023-09-12T11:30:18;20.70;99.90
7030;DHT22;3556;53.500;10.176;2023-09-12T11:32:46;20.70;99.90
7030;DHT22;3556;53.500;10.176;2023-09-12T11:35:13;20.60;99.90
7030;DHT22;3556;53.500;10.176;2023-09-12T11:37:39;20.70;99.90
7030;DHT22;3556;53.500;10.176;2023-09-12T11:42:42;20.60;99.90
7030;DHT22;3556;53.500;10.176;2023-09-12T11:45:09;20.60;99.90
7030;DHT22;3556;53.500;10.176;2023-09-12T11:47:40;20.60;99.90
7030;DHT22;3556;53.500;10.176;2023-09-12T11:50:06;20.60;99.90
7030;DHT22;3556;53.500;10.176;2023-09-12T11:52:36;20.60;99.90
7030;DHT22;3556;53.500;10.176;2023-09-12T11:55:05;20.50;99.90
7030;DHT22;3556;53.500;10.176;2023-09-12T11:57:30;20.50;99.90
7030;DHT22;3556;53.500;10.176;2023-09-12T11:59:57;20.50;99.90
7030;DHT22;3556;53.500;10.176;2023-09-12T12:02:23;20.50;99.90
7030;DHT22;3556;53.500;10.176;2023-09-12T12:04:49;20.50;99.90
7030;DHT22;3556;53.500;10.176;2023-09-12T12:07:15;20.50;99.90
7030;DHT22;3556;53.500;10.176;2023-09-12T12:09:41;20.50;99.90
7030;DHT22;3556;53.500;10.176;2023-09-12T12:12:12;20.50;99.90
7030;DHT22;3556;53.500;10.176;2023-09-12T12:14:39;20.50;99.90
7030;DHT22;3556;53.500;10.176;2023-09-12T12:17:09;20.40;99.90
7030;DHT22;3556;53.500;10.176;2023-09-12T12:19:35;20.40;99.90
7030;DHT22;3556;53.500;10.176;2023-09-12T12:22:05;20.50;99.90
7030;DHT22;3556;53.500;10.176;2023-09-12T12:24:48;20.50;99.90
7030;DHT22;3556;53.500;10.176;2023-09-12T12:27:16;20.50;99.90
7030;DHT22;3556;53.500;10.176;2023-09-12T12:29:42;20.50;99.90
7030;DHT22;3556;53.500;10.176;2023-09-12T12:32:10;20.50;99.90
7030;DHT22;3556;53.500;10.176;2023-09-12T12:34:36;20.60;99.90
7030;DHT22;3556;53.500;10.176;2023-09-12T12:37:03;20.60;99.90
7030;DHT22;3556;53.500;10.176;2023-09-12T12:39:28;20.60;99.90
7030;DHT22;3556;53.500;10.176;2023-09-12T12:41:54;20.60;99.90
7030;DHT22;3556;53.500;10.176;2023-09-12T12:44:21;20.60;99.90
7030;DHT22;3556;53.500;10.176;2023-09-12T12:46:53;20.60;99.90
7030;DHT22;3556;53.500;10.176;2023-09-12T12:49:19;20.60;99.90
7030;DHT22;3556;53.500;10.176;2023-09-12T12:51:45;20.60;99.90
7030;DHT22;3556;53.500;10.176;2023-09-12T12:54:11;20.70;99.90
7030;DHT22;3556;53.500;10.176;2023-09-12T12:56:38;20.70;99.90
7030;DHT22;3556;53.500;10.176;2023-09-12T12:59:05;20.80;99.90
7030;DHT22;3556;53.500;10.176;2023-09-12T13:01:38;20.80;99.90
7030;DHT22;3556;53.500;10.176;2023-09-12T13:04:05;20.90;99.90
7030;DHT22;3556;53.500;10.176;2023-09-12T13:06:32;20.90;99.90
7030;DHT22;3556;53.500;10.176;2023-09-12T13:09:01;20.80;99.90
7030;DHT22;3556;53.500;10.176;2023-09-12T13:11:30;20.80;99.90
7030;DHT22;3556;53.500;10.176;2023-09-12T13:13:55;20.80;99.90
7030;DHT22;3556;53.500;10.176;2023-09-12T13:16:22;20.80;99.90
7030;DHT22;3556;53.500;10.176;2023-09-12T13:18:47;20.80;99.90
7030;DHT22;3556;53.500;10.176;2023-09-12T13:21:13;20.80;99.90
7030;DHT22;3556;53.500;10.176;2023-09-12T13:23:39;20.80;99.90
7030;DHT22;3556;53.500;10.176;2023-09-12T13:26:07;20.80;99.90
7030;DHT22;3556;53.500;10.176;2023-09-12T13:28:33;20.80;99.90
7030;DHT22;3556;53.500;10.176;2023-09-12T13:30:58;20.80;99.90
7030;DHT22;3556;53.500;10.176;2023-09-12T13:33:24;20.70;99.90
7030;DHT22;3556;53.500;10.176;2023-09-12T13:35:50;20.70;99.90
7030;DHT22;3556;53.500;10.176;2023-09-12T13:38:16;20.80;99.90
7030;DHT22;3556;53.500;10.176;2023-09-12T13:40:45;20.90;99.90
7030;DHT22;3556;53.500;10.176;2023-09-12T13:43:11;20.90;99.90
7030;DHT22;3556;53.500;10.176;2023-09-12T13:45:37;21.00;99.90
7030;DHT22;3556;53.500;10.176;2023-09-12T13:48:03;21.10;99.90
7030;DHT22;3556;53.500;10.176;2023-09-12T13:50:30;21.30;99.90
7030;DHT22;3556;53.500;10.176;2023-09-12T13:53:00;21.60;99.90
7030;DHT22;3556;53.500;10.176;2023-09-12T13:55:29;21.80;99.90
7030;DHT22;3556;53.500;10.176;2023-09-12T13:57:55;22.10;99.90
7030;DHT22;3556;53.500;10.176;2023-09-12T14:00:20;22.20;99.90
7030;DHT22;3556;53.500;10.176;2023-09-12T14:02:46;22.10;99.90
7030;DHT22;3556;53.500;10.176;2023-09-12T14:05:12;22.00;99.90
7030;DHT22;3556;53.500;10.176;2023-09-12T14:07:38;22.10;99.90
7030;DHT22;3556;53.500;10.176;2023-09-12T14:10:06;22.00;99.90
7030;DHT22;3556;53.500;10.176;2023-09-12T14:12:32;22.00;99.90
7030;DHT22;3556;53.500;10.176;2023-09-12T14:14:58;22.00;99.90
7030;DHT22;3556;53.500;10.176;2023-09-12T14:17:23;22.10;99.90
7030;DHT22;3556;53.500;10.176;2023-09-12T14:19:49;22.10;99.90
7030;DHT22;3556;53.500;10.176;2023-09-12T14:22:15;22.20;99.90
7030;DHT22;3556;53.500;10.176;2023-09-12T14:24:41;22.20;99.90
7030;DHT22;3556;53.500;10.176;2023-09-12T14:27:06;22.20;99.90
7030;DHT22;3556;53.500;10.176;2023-09-12T14:29:32;22.30;99.90
7030;DHT22;3556;53.500;10.176;2023-09-12T14:31:57;22.40;99.90
7030;DHT22;3556;53.500;10.176;2023-09-12T14:34:24;22.50;99.90
7030;DHT22;3556;53.500;10.176;2023-09-12T14:36:55;22.50;99.90
7030;DHT22;3556;53.500;10.176;2023-09-12T14:39:25;22.40;99.90
7030;DHT22;3556;53.500;10.176;2023-09-12T14:41:51;22.40;99.90
7030;DHT22;3556;53.500;10.176;2023-09-12T14:44:18;22.20;99.90
7030;DHT22;3556;53.500;10.176;2023-09-12T14:46:44;22.10;99.90
7030;DHT22;3556;53.500;10.176;2023-09-12T14:49:10;22.00;99.90
7030;DHT22;3556;53.500;10.176;2023-09-12T14:51:36;21.90;99.90
7030;DHT22;3556;53.500;10.176;2023-09-12T14:54:02;21.80;99.90
7030;DHT22;3556;53.500;10.176;2023-09-12T14:56:29;21.70;99.90
7030;DHT22;3556;53.500;10.176;2023-09-12T14:58:54;21.70;99.90
7030;DHT22;3556;53.500;10.176;2023-09-12T15:01:20;21.80;99.90
7030;DHT22;3556;53.500;10.176;2023-09-12T15:03:45;21.80;99.90
7030;DHT22;3556;53.500;10.176;2023-09-12T15:06:11;21.80;99.90
7030;DHT22;3556;53.500;10.176;2023-09-12T15:08:37;21.80;99.90
7030;DHT22;3556;53.500;10.176;2023-09-12T15:11:03;21.80;99.90
7030;DHT22;3556;53.500;10.176;2023-09-12T15:13:29;22.00;99.90
7030;DHT22;3556;53.500;10.176;2023-09-12T15:15:55;22.20;99.90
7030;DHT22;3556;53.500;10.176;2023-09-12T15:18:20;22.40;99.90
7030;DHT22;3556;53.500;10.176;2023-09-12T15:20:46;22.60;99.90
7030;DHT22;3556;53.500;10.176;2023-09-12T15:23:11;22.70;99.90
7030;DHT22;3556;53.500;10.176;2023-09-12T15:25:37;22.70;99.90
7030;DHT22;3556;53.500;10.176;2023-09-12T15:28:03;22.80;99.90
7030;DHT22;3556;53.500;10.176;2023-09-12T15:30:29;22.80;99.90
7030;DHT22;3556;53.500;10.176;2023-09-12T15:32:54;22.80;99.90
7030;DHT22;3556;53.500;10.176;2023-09-12T15:35:20;22.80;99.90
7030;DHT22;3556;53.500;10.176;2023-09-12T15:37:45;22.80;99.90
7030;DHT22;3556;53.500;10.176;2023-09-12T15:40:11;22.70;99.90
7030;DHT22;3556;53.500;10.176;2023-09-12T15:42:37;22.70;99.90
7030;DHT22;3556;53.500;10.176;2023-09-12T15:45:03;22.70;99.90
7030;DHT22;3556;53.500;10.176;2023-09-12T15:47:30;22.60;99.90
7030;DHT22;3556;53.500;10.176;2023-09-12T15:49:55;22.60;99.90
7030;DHT22;3556;53.500;10.176;2023-09-12T15:52:21;22.60;99.90
7030;DHT22;3556;53.500;10.176;2023-09-12T15:54:47;22.50;99.90
7030;DHT22;3556;53.500;10.176;2023-09-12T15:57:14;22.50;99.90
7030;DHT22;3556;53.500;10.176;2023-09-12T15:59:40;22.50;99.90